createdAt,value
2022-08-04T00:00:52.652Z,74.8
2022-08-04T00:01:53.318Z,75.3
2022-08-04T00:02:53.903Z,75.1
2022-08-04T00:03:55.538Z,75.8
2022-08-04T00:04:56.239Z,75.8
2022-08-04T00:05:56.839Z,75.5
2022-08-04T00:06:57.451Z,76.2
2022-08-04T00:07:58.049Z,76.3
2022-08-04T00:08:58.646Z,76.5
2022-08-04T00:09:59.252Z,76.5
2022-08-04T00:10:59.839Z,76.5
2022-08-04T00:12:00.436Z,76.2
2022-08-04T00:13:01.031Z,75.8
2022-08-04T00:14:03.493Z,76.0
2022-08-04T00:15:03.217Z,76.4
2022-08-04T00:16:03.815Z,76.2
2022-08-04T00:17:04.413Z,76.5
2022-08-04T00:18:05.011Z,76.4
2022-08-04T00:19:05.605Z,76.2
2022-08-04T00:20:06.201Z,75.8
2022-08-04T00:21:06.821Z,74.8
2022-08-04T00:22:07.417Z,74.7
2022-08-04T00:23:08.015Z,74.7
2022-08-04T00:24:12.131Z,74.3
2022-08-04T00:25:10.199Z,75.2
2022-08-04T00:26:10.794Z,75.1
2022-08-04T00:27:11.391Z,75.8
2022-08-04T00:28:11.988Z,76.1
2022-08-04T00:29:12.585Z,76.2
2022-08-04T00:30:13.181Z,75.6
2022-08-04T00:31:13.777Z,75.7
2022-08-04T00:32:15.381Z,75.8
2022-08-04T00:33:15.977Z,75.9
2022-08-04T00:34:16.573Z,76.7
2022-08-04T00:35:17.172Z,77.0
2022-08-04T00:36:17.766Z,76.7
2022-08-04T00:37:18.360Z,76.7
2022-08-04T00:38:18.962Z,77.9
2022-08-04T00:39:19.929Z,77.5
2022-08-04T00:40:20.647Z,78.6
2022-08-04T00:41:21.243Z,79.8
2022-08-04T00:42:21.840Z,80.1
2022-08-04T00:43:22.434Z,80.3
2022-08-04T00:44:23.693Z,80.6
2022-08-04T00:45:24.621Z,80.8
2022-08-04T00:46:25.218Z,81.1
2022-08-04T00:47:25.813Z,81.5
2022-08-04T00:48:26.411Z,81.9
2022-08-04T00:49:27.029Z,81.8
2022-08-04T00:50:27.626Z,82.0
2022-08-04T00:51:28.243Z,82.4
2022-08-04T00:52:31.325Z,82.8
2022-08-04T00:53:30.426Z,83.0
2022-08-04T00:54:31.022Z,83.2
2022-08-04T00:55:31.619Z,83.2
2022-08-04T00:56:32.233Z,83.1
2022-08-04T00:57:34.395Z,82.3
2022-08-04T00:58:34.420Z,82.6
2022-08-04T00:59:35.014Z,82.8
2022-08-04T01:00:35.609Z,82.7
2022-08-04T01:01:36.266Z,82.4
2022-08-04T01:02:36.877Z,82.6
2022-08-04T01:03:37.470Z,82.8
2022-08-04T01:04:38.092Z,82.6
2022-08-04T01:05:38.687Z,83.7
2022-08-04T01:06:39.302Z,83.7
2022-08-04T01:07:39.899Z,83.6
2022-08-04T01:08:40.498Z,83.7
2022-08-04T01:09:41.097Z,84.0
2022-08-04T01:10:41.688Z,82.9
2022-08-04T01:11:57.570Z,83.1
2022-08-04T01:12:43.872Z,82.2
2022-08-04T01:13:44.469Z,81.8
2022-08-04T01:14:45.064Z,80.9
2022-08-04T01:15:59.348Z,80.6
2022-08-04T01:16:46.272Z,80.6
2022-08-04T01:17:46.869Z,80.9
2022-08-04T01:18:47.466Z,81.0
2022-08-04T01:19:48.064Z,81.4
2022-08-04T01:20:48.660Z,81.8
2022-08-04T01:21:49.256Z,81.8
2022-08-04T01:22:49.852Z,82.3
2022-08-04T01:23:50.450Z,82.5
2022-08-04T01:24:51.066Z,82.6
2022-08-04T01:25:52.049Z,82.8
2022-08-04T01:26:58.195Z,82.6
2022-08-04T01:27:55.229Z,83.1
2022-08-04T01:28:56.817Z,83.2
2022-08-04T01:29:57.415Z,83.0
2022-08-04T01:30:58.033Z,83.1
2022-08-04T01:31:58.628Z,82.9
2022-08-04T01:32:59.224Z,83.6
2022-08-04T01:34:03.897Z,83.8
2022-08-04T01:35:01.412Z,83.6
2022-08-04T01:36:02.075Z,83.2
2022-08-04T01:37:02.614Z,82.9
2022-08-04T01:38:18.302Z,83.0
2022-08-04T01:39:04.833Z,83.2
2022-08-04T01:40:05.397Z,83.0
2022-08-04T01:41:05.991Z,83.1
2022-08-04T01:42:06.589Z,83.6
2022-08-04T01:43:08.177Z,83.7
2022-08-04T01:44:08.776Z,84.0
2022-08-04T01:45:09.374Z,83.8
2022-08-04T01:46:09.971Z,84.2
2022-08-04T01:47:10.565Z,84.2
2022-08-04T01:48:11.160Z,84.3
2022-08-04T01:49:11.756Z,84.3
2022-08-04T01:50:12.354Z,84.5
2022-08-04T01:51:12.975Z,84.3
2022-08-04T01:52:13.587Z,83.8
2022-08-04T01:53:14.182Z,83.5
2022-08-04T01:54:14.779Z,83.6
2022-08-04T01:55:16.374Z,83.8
2022-08-04T01:56:16.966Z,83.5
2022-08-04T01:57:37.539Z,82.7
2022-08-04T01:58:19.152Z,83.6
2022-08-04T01:59:19.749Z,83.7
2022-08-04T02:00:20.350Z,83.3
2022-08-04T02:01:20.993Z,84.1
2022-08-04T02:02:21.636Z,83.6
2022-08-04T02:03:22.219Z,83.7
2022-08-04T02:04:23.912Z,83.5
2022-08-04T02:05:24.478Z,83.7
2022-08-04T02:06:25.075Z,83.7
2022-08-04T02:07:25.668Z,83.7
2022-08-04T02:08:27.550Z,82.9
2022-08-04T02:09:26.879Z,83.1
2022-08-04T02:10:27.475Z,82.9
2022-08-04T02:11:28.070Z,83.1
2022-08-04T02:12:28.667Z,83.1
2022-08-04T02:13:29.262Z,83.4
2022-08-04T02:14:29.861Z,83.2
2022-08-04T02:15:31.088Z,83.0
2022-08-04T02:16:31.685Z,82.6
2022-08-04T02:17:32.282Z,83.1
2022-08-04T02:18:32.878Z,82.9
2022-08-04T02:19:33.474Z,83.1
2022-08-04T02:20:34.072Z,83.3
2022-08-04T02:21:42.127Z,83.4
2022-08-04T02:22:36.258Z,83.4
2022-08-04T02:23:36.852Z,84.0
2022-08-04T02:24:37.451Z,83.7
2022-08-04T02:25:38.047Z,83.7
2022-08-04T02:26:38.643Z,83.5
2022-08-04T02:28:00.135Z,83.6
2022-08-04T02:28:40.831Z,83.7
2022-08-04T02:29:41.428Z,82.9
2022-08-04T02:30:42.023Z,82.9
2022-08-04T02:31:42.619Z,83.1
2022-08-04T02:32:43.219Z,82.8
2022-08-04T02:33:43.812Z,83.0
2022-08-04T02:34:44.428Z,83.1
2022-08-04T02:35:45.023Z,82.8
2022-08-04T02:36:45.618Z,83.8
2022-08-04T02:37:46.214Z,83.4
2022-08-04T02:38:46.831Z,83.7
2022-08-04T02:39:48.719Z,83.7
2022-08-04T02:40:48.995Z,84.1
2022-08-04T02:41:49.591Z,84.1
2022-08-04T02:42:50.187Z,84.2
2022-08-04T02:43:52.802Z,84.3
2022-08-04T02:44:52.371Z,83.9
2022-08-04T02:45:52.966Z,84.1
2022-08-04T02:46:53.565Z,84.5
2022-08-04T02:48:29.035Z,84.4
2022-08-04T02:48:55.751Z,83.9
2022-08-04T02:49:56.346Z,84.1
2022-08-04T02:50:57.844Z,84.2
2022-08-04T02:51:58.440Z,84.1
2022-08-04T02:52:59.037Z,84.0
2022-08-04T02:53:59.630Z,84.1
2022-08-04T02:55:00.229Z,84.3
2022-08-04T02:56:00.822Z,84.4
2022-08-04T02:57:01.422Z,84.6
2022-08-04T02:58:02.015Z,84.4
2022-08-04T02:59:02.627Z,84.7
2022-08-04T03:00:03.225Z,84.7
2022-08-04T03:01:03.862Z,84.7
2022-08-04T03:02:04.415Z,84.8
2022-08-04T03:03:05.013Z,84.8
2022-08-04T03:04:06.601Z,85.2
2022-08-04T03:05:07.198Z,85.2
2022-08-04T03:06:10.561Z,85.2
2022-08-04T03:07:15.593Z,85.3
2022-08-04T03:08:10.993Z,85.6
2022-08-04T03:09:11.588Z,85.4
2022-08-04T03:10:12.185Z,85.5
2022-08-04T03:11:12.782Z,85.7
2022-08-04T03:12:13.752Z,85.1
2022-08-04T03:13:14.369Z,85.3
2022-08-04T03:14:14.965Z,85.2
2022-08-04T03:15:15.562Z,85.0
2022-08-04T03:16:17.151Z,84.5
2022-08-04T03:17:17.747Z,84.6
2022-08-04T03:18:18.342Z,84.4
2022-08-04T03:19:18.940Z,83.6
2022-08-04T03:20:19.544Z,83.5
2022-08-04T03:21:20.135Z,83.6
2022-08-04T03:22:20.735Z,83.6
2022-08-04T03:23:21.335Z,83.7
2022-08-04T03:24:21.930Z,83.7
2022-08-04T03:25:22.533Z,84.0
2022-08-04T03:26:23.129Z,83.9
2022-08-04T03:27:23.768Z,84.3
2022-08-04T03:28:24.421Z,84.4
2022-08-04T03:29:36.548Z,84.5
2022-08-04T03:30:26.611Z,84.0
2022-08-04T03:31:27.209Z,84.4
2022-08-04T03:32:27.805Z,84.3
2022-08-04T03:33:28.407Z,84.3
2022-08-04T03:34:29.024Z,84.3
2022-08-04T03:35:29.623Z,84.6
2022-08-04T03:36:31.816Z,83.9
2022-08-04T03:37:31.815Z,83.6
2022-08-04T03:38:32.413Z,83.6
2022-08-04T03:39:33.092Z,83.8
2022-08-04T03:40:33.708Z,84.2
2022-08-04T03:41:57.363Z,84.2
2022-08-04T03:42:34.944Z,84.9
2022-08-04T03:43:58.000Z,84.6
2022-08-04T03:44:36.162Z,84.4
2022-08-04T03:45:36.764Z,84.9
2022-08-04T03:46:37.361Z,84.7
2022-08-04T03:47:44.238Z,84.7
2022-08-04T03:48:39.553Z,84.6
2022-08-04T03:49:40.151Z,83.4
2022-08-04T03:50:41.533Z,83.6
2022-08-04T03:51:41.367Z,82.9
2022-08-04T03:52:41.964Z,82.9
2022-08-04T03:53:43.556Z,83.8
2022-08-04T03:54:44.154Z,83.3
2022-08-04T03:55:44.755Z,84.0
2022-08-04T03:56:45.356Z,83.8
2022-08-04T03:57:45.956Z,84.3
2022-08-04T03:58:46.555Z,84.3
2022-08-04T03:59:48.738Z,84.1
2022-08-04T04:00:47.791Z,84.2
2022-08-04T04:02:02.399Z,84.2
2022-08-04T04:02:49.028Z,84.4
2022-08-04T04:03:49.598Z,84.6
2022-08-04T04:04:50.197Z,84.6
2022-08-04T04:05:58.955Z,84.6
2022-08-04T04:06:54.182Z,84.9
2022-08-04T04:07:59.617Z,84.4
2022-08-04T04:08:55.581Z,84.2
2022-08-04T04:10:05.864Z,84.8
2022-08-04T04:10:58.766Z,85.2
2022-08-04T04:11:59.371Z,85.0
2022-08-04T04:12:59.989Z,84.7
2022-08-04T04:14:00.590Z,84.7
2022-08-04T04:15:01.209Z,85.6
2022-08-04T04:16:01.815Z,85.0
2022-08-04T04:17:02.409Z,84.7
2022-08-04T04:18:03.008Z,84.2
2022-08-04T04:19:03.633Z,83.9
2022-08-04T04:20:04.230Z,83.4
2022-08-04T04:21:04.829Z,83.8
2022-08-04T04:22:05.431Z,83.3
2022-08-04T04:23:06.032Z,83.5
2022-08-04T04:24:07.628Z,83.1
2022-08-04T04:25:08.236Z,83.0
2022-08-04T04:26:08.835Z,83.9
2022-08-04T04:27:09.458Z,83.7
2022-08-04T04:28:44.185Z,83.8
2022-08-04T04:29:11.653Z,84.2
2022-08-04T04:30:12.258Z,84.3
2022-08-04T04:31:12.859Z,84.3
2022-08-04T04:32:13.460Z,83.9
2022-08-04T04:33:14.062Z,84.1
2022-08-04T04:34:14.663Z,83.6
2022-08-04T04:35:15.264Z,83.3
2022-08-04T04:36:15.866Z,83.2
2022-08-04T04:37:16.467Z,82.8
2022-08-04T04:38:17.069Z,82.7
2022-08-04T04:39:17.708Z,82.2
2022-08-04T04:40:18.296Z,82.8
2022-08-04T04:41:18.898Z,82.9
2022-08-04T04:42:19.502Z,83.5
2022-08-04T04:43:20.103Z,83.8
2022-08-04T04:44:20.706Z,83.7
2022-08-04T04:45:21.308Z,83.8
2022-08-04T04:46:21.909Z,84.1
2022-08-04T04:48:07.361Z,84.0
2022-08-04T04:48:24.107Z,83.8
2022-08-04T04:49:24.709Z,84.4
2022-08-04T04:50:33.634Z,84.0
2022-08-04T04:51:26.909Z,84.3
2022-08-04T04:52:27.510Z,84.0
2022-08-04T04:53:28.115Z,84.1
2022-08-04T04:54:28.715Z,83.4
2022-08-04T04:55:29.321Z,83.4
2022-08-04T04:56:29.922Z,83.6
2022-08-04T04:57:53.490Z,83.5
2022-08-04T04:58:32.121Z,82.9
2022-08-04T04:59:32.721Z,83.1
2022-08-04T05:00:33.325Z,83.1
2022-08-04T05:01:33.926Z,83.1
2022-08-04T05:02:34.528Z,82.6
2022-08-04T05:03:35.130Z,82.6
2022-08-04T05:04:35.733Z,82.1
2022-08-04T05:05:36.333Z,81.8
2022-08-04T05:06:36.955Z,81.5
2022-08-04T05:07:37.575Z,81.3
2022-08-04T05:08:43.820Z,81.0
2022-08-04T05:09:38.794Z,81.0
2022-08-04T05:10:39.395Z,80.7
2022-08-04T05:11:39.995Z,80.8
2022-08-04T05:14:22.823Z,80.4
2022-08-04T05:14:38.678Z,80.5
2022-08-04T05:14:43.803Z,80.3
2022-08-04T05:15:44.420Z,80.3
2022-08-04T05:16:45.010Z,80.5
2022-08-04T05:17:45.610Z,79.4
2022-08-04T05:18:46.217Z,78.7
2022-08-04T05:19:46.818Z,78.7
2022-08-04T05:20:47.422Z,79.2
2022-08-04T05:21:48.029Z,80.3
2022-08-04T05:22:48.629Z,80.2
2022-08-04T05:23:49.232Z,80.3
2022-08-04T05:24:49.834Z,80.4
2022-08-04T05:25:59.568Z,80.7
2022-08-04T05:26:52.029Z,80.7
2022-08-04T05:27:52.631Z,81.8
2022-08-04T05:28:53.237Z,81.6
2022-08-04T05:29:53.840Z,82.3
2022-08-04T05:30:54.438Z,83.1
2022-08-04T05:31:55.040Z,83.0
2022-08-04T05:32:59.112Z,82.9
2022-08-04T05:33:56.255Z,84.0
2022-08-04T05:34:56.859Z,83.0
2022-08-04T05:36:20.766Z,81.0
2022-08-04T05:36:59.053Z,80.4
2022-08-04T05:38:01.241Z,79.1
2022-08-04T05:39:01.330Z,78.5
2022-08-04T05:40:01.885Z,80.4
2022-08-04T05:41:02.487Z,79.2
2022-08-04T05:42:04.549Z,77.4
2022-08-04T05:43:04.687Z,76.3
2022-08-04T05:44:05.287Z,76.0
2022-08-04T05:45:05.890Z,74.2
2022-08-04T05:46:06.492Z,72.8
2022-08-04T05:47:07.092Z,72.4
2022-08-04T05:48:07.695Z,71.6
2022-08-04T05:49:08.296Z,70.0
2022-08-04T05:50:08.901Z,69.8
2022-08-04T05:51:09.522Z,69.4
2022-08-04T05:52:10.124Z,69.9
2022-08-04T05:53:10.725Z,69.7
2022-08-04T05:54:11.327Z,69.7
2022-08-04T05:55:11.931Z,69.8
2022-08-04T05:56:12.535Z,67.8
2022-08-04T05:57:13.203Z,68.1
2022-08-04T05:58:13.762Z,69.8
2022-08-04T05:59:14.365Z,68.5
2022-08-04T06:00:39.069Z,70.5
2022-08-04T06:01:15.629Z,71.6
2022-08-04T06:02:16.223Z,72.6
2022-08-04T06:03:16.795Z,73.6
2022-08-04T06:04:17.396Z,74.9
2022-08-04T06:05:17.998Z,74.3
2022-08-04T06:06:18.600Z,74.5
2022-08-04T06:07:19.313Z,72.7
2022-08-04T06:08:19.945Z,69.8
2022-08-04T06:09:20.543Z,67.3
2022-08-04T06:10:25.389Z,66.7
2022-08-04T06:11:22.739Z,66.7
2022-08-04T06:12:23.344Z,67.8
2022-08-04T06:13:48.017Z,70.2
2022-08-04T06:14:25.540Z,72.9
2022-08-04T06:15:26.141Z,74.1
2022-08-04T06:16:28.737Z,74.0
2022-08-04T06:18:33.594Z,73.3
2022-08-04T06:19:10.059Z,74.2
2022-08-04T06:20:02.192Z,73.3
2022-08-04T06:20:34.707Z,73.1
2022-08-04T06:21:34.735Z,70.3
2022-08-04T06:22:35.344Z,67.3
2022-08-04T06:23:35.963Z,65.7
2022-08-04T06:24:37.560Z,62.8
2022-08-04T06:25:38.163Z,60.3
2022-08-04T06:26:38.767Z,57.0
2022-08-04T06:27:39.368Z,56.4
2022-08-04T06:28:39.973Z,57.9
2022-08-04T06:29:40.573Z,60.3
2022-08-04T06:30:41.194Z,60.5
2022-08-04T06:32:28.537Z,58.3
2022-08-04T06:32:43.414Z,58.9
2022-08-04T06:33:54.630Z,57.5
2022-08-04T06:34:45.637Z,58.0
2022-08-04T06:35:46.244Z,59.3
2022-08-04T06:36:46.842Z,57.8
2022-08-04T06:37:47.772Z,57.8
2022-08-04T06:38:58.708Z,57.0
2022-08-04T06:39:50.112Z,56.3
2022-08-04T06:40:51.709Z,58.2
2022-08-04T06:42:02.515Z,56.9
2022-08-04T06:42:53.908Z,56.2
2022-08-04T06:43:54.511Z,56.9
2022-08-04T06:44:55.132Z,57.8
2022-08-04T06:45:55.737Z,56.9
2022-08-04T06:46:56.363Z,58.2
2022-08-04T06:47:56.985Z,58.8
2022-08-04T06:48:57.589Z,58.3
2022-08-04T06:51:25.335Z,59.5
2022-08-04T06:51:25.896Z,57.5
2022-08-04T06:52:00.436Z,58.0
2022-08-04T06:53:01.039Z,58.1
2022-08-04T06:54:01.642Z,56.8
2022-08-04T06:55:02.267Z,54.1
2022-08-04T06:56:02.874Z,56.2
2022-08-04T06:57:03.484Z,57.7
2022-08-04T06:58:04.091Z,59.5
2022-08-04T06:59:04.699Z,61.4
2022-08-04T07:00:05.300Z,61.5
2022-08-04T07:01:05.903Z,60.9
2022-08-04T07:02:06.546Z,63.5
2022-08-04T07:03:07.124Z,63.5
2022-08-04T07:04:07.711Z,64.0
2022-08-04T07:05:08.317Z,63.2
2022-08-04T07:06:14.334Z,64.1
2022-08-04T07:07:10.531Z,63.1
2022-08-04T07:08:11.135Z,62.3
2022-08-04T07:09:11.759Z,61.3
2022-08-04T07:10:12.386Z,58.5
2022-08-04T07:11:13.978Z,56.8
2022-08-04T07:12:14.580Z,56.0
2022-08-04T07:13:15.185Z,54.8
2022-08-04T07:14:15.806Z,56.2
2022-08-04T07:15:16.411Z,55.8
2022-08-04T07:16:17.011Z,56.1
2022-08-04T07:17:17.615Z,55.6
2022-08-04T07:18:18.215Z,55.9
2022-08-04T07:19:19.257Z,56.0
2022-08-04T07:20:34.672Z,56.1
2022-08-04T07:21:20.459Z,57.0
2022-08-04T07:22:25.565Z,58.7
2022-08-04T07:23:22.659Z,56.5
2022-08-04T07:24:23.262Z,54.9
2022-08-04T07:25:23.867Z,54.2
2022-08-04T07:26:25.461Z,54.3
2022-08-04T07:27:26.068Z,54.2
2022-08-04T07:28:27.665Z,54.0
2022-08-04T07:29:28.269Z,54.0
2022-08-04T07:30:28.875Z,54.3
2022-08-04T07:31:34.543Z,54.7
2022-08-04T07:32:31.093Z,56.0
2022-08-04T07:33:31.902Z,55.7
2022-08-04T07:34:32.509Z,55.6
2022-08-04T07:36:05.175Z,53.8
2022-08-04T07:36:41.995Z,53.2
2022-08-04T07:37:39.328Z,54.0
2022-08-04T07:38:46.625Z,52.6
2022-08-04T07:39:48.352Z,52.7
2022-08-04T07:40:41.112Z,50.5
2022-08-04T07:41:44.145Z,51.4
2022-08-04T07:42:42.337Z,49.9
2022-08-04T07:43:42.942Z,52.0
2022-08-04T07:44:43.547Z,52.0
2022-08-04T07:45:45.145Z,51.2
2022-08-04T07:46:46.742Z,51.2
2022-08-04T07:48:04.738Z,50.4
2022-08-04T07:48:48.941Z,51.2
2022-08-04T07:49:55.134Z,50.2
2022-08-04T07:50:51.163Z,50.8
2022-08-04T07:51:51.784Z,50.7
2022-08-04T07:53:15.309Z,50.3
2022-08-04T07:53:56.380Z,50.7
2022-08-04T07:54:55.579Z,51.5
2022-08-04T07:55:56.183Z,51.5
2022-08-04T07:56:56.787Z,50.9
2022-08-04T07:57:57.392Z,51.6
2022-08-04T07:58:57.995Z,50.7
2022-08-04T07:59:58.616Z,51.7
2022-08-04T08:00:59.217Z,50.8
2022-08-04T08:01:59.819Z,51.5
2022-08-04T08:03:00.505Z,52.2
2022-08-04T08:04:01.181Z,52.9
2022-08-04T08:05:01.768Z,52.7
2022-08-04T08:06:21.066Z,52.6
2022-08-04T08:07:04.017Z,54.1
2022-08-04T08:08:04.622Z,52.6
2022-08-04T08:09:13.833Z,54.7
2022-08-04T08:10:06.817Z,52.4
2022-08-04T08:11:07.418Z,55.2
2022-08-04T08:12:35.577Z,54.2
2022-08-04T08:13:09.650Z,54.2
2022-08-04T08:14:10.242Z,53.0
2022-08-04T08:15:10.864Z,52.5
2022-08-04T08:16:12.527Z,51.9
2022-08-04T08:17:13.085Z,51.9
2022-08-04T08:18:13.690Z,49.6
2022-08-04T08:19:14.292Z,50.9
2022-08-04T08:20:14.915Z,51.2
2022-08-04T08:21:16.512Z,49.6
2022-08-04T08:22:17.117Z,50.5
2022-08-04T08:23:17.719Z,50.8
2022-08-04T08:24:19.319Z,50.8
2022-08-04T08:25:19.919Z,49.9
2022-08-04T08:26:21.388Z,48.6
2022-08-04T08:27:22.241Z,47.7
2022-08-04T08:28:22.943Z,47.5
2022-08-04T08:29:23.544Z,48.0
2022-08-04T08:30:24.168Z,50.0
2022-08-04T08:31:56.453Z,48.3
2022-08-04T08:32:26.370Z,48.3
2022-08-04T08:33:26.973Z,46.4
2022-08-04T08:34:28.653Z,45.2
2022-08-04T08:35:29.191Z,47.5
2022-08-04T08:36:29.795Z,46.3
2022-08-04T08:37:30.402Z,46.5
2022-08-04T08:38:31.042Z,46.2
2022-08-04T08:39:31.779Z,46.3
2022-08-04T08:40:40.930Z,47.0
2022-08-04T08:41:34.034Z,46.8
2022-08-04T08:42:34.636Z,47.0
2022-08-04T08:44:05.905Z,46.3
2022-08-04T08:44:37.743Z,44.0
2022-08-04T08:45:38.433Z,45.5
2022-08-04T08:46:49.321Z,42.7
2022-08-04T08:48:04.710Z,45.0
2022-08-04T08:48:42.130Z,44.2
2022-08-04T08:50:00.415Z,43.9
2022-08-04T08:50:44.329Z,42.0
2022-08-04T08:51:47.593Z,44.3
2022-08-04T08:52:55.363Z,42.7
2022-08-04T08:53:48.126Z,41.3
2022-08-04T08:54:48.731Z,42.2
2022-08-04T08:55:49.331Z,41.5
2022-08-04T08:56:49.939Z,41.8
2022-08-04T08:57:59.942Z,40.4
2022-08-04T08:58:52.157Z,40.6
2022-08-04T08:59:52.756Z,39.2
2022-08-04T09:00:53.359Z,39.5
2022-08-04T09:01:53.996Z,41.6
2022-08-04T09:03:04.646Z,38.8
2022-08-04T09:03:56.174Z,38.4
2022-08-04T09:04:56.801Z,38.2
2022-08-04T09:05:57.422Z,40.9
2022-08-04T09:06:58.027Z,40.3
2022-08-04T09:07:58.628Z,38.5
2022-08-04T09:08:59.252Z,38.7
2022-08-04T09:09:59.855Z,38.2
2022-08-04T09:11:01.223Z,38.5
2022-08-04T09:12:01.825Z,38.4
2022-08-04T09:13:02.436Z,37.1
2022-08-04T09:14:03.036Z,36.6
2022-08-04T09:15:03.643Z,36.8
2022-08-04T09:16:04.243Z,37.3
2022-08-04T09:17:04.846Z,36.7
2022-08-04T09:18:05.447Z,35.6
2022-08-04T09:19:06.052Z,36.4
2022-08-04T09:20:06.654Z,35.5
2022-08-04T09:21:07.259Z,36.3
2022-08-04T09:22:12.322Z,35.6
2022-08-04T09:23:09.461Z,36.4
2022-08-04T09:24:35.275Z,36.6
2022-08-04T09:25:11.664Z,36.3
2022-08-04T09:26:12.267Z,36.2
2022-08-04T09:27:12.872Z,36.2
2022-08-04T09:28:13.475Z,36.2
2022-08-04T09:29:14.079Z,34.9
2022-08-04T09:30:14.706Z,35.7
2022-08-04T09:31:15.310Z,36.1
2022-08-04T09:32:15.912Z,34.9
2022-08-04T09:33:16.516Z,35.1
2022-08-04T09:34:17.136Z,34.1
2022-08-04T09:35:17.742Z,34.9
2022-08-04T09:36:25.954Z,33.9
2022-08-04T09:37:20.165Z,34.1
2022-08-04T09:38:20.563Z,34.8
2022-08-04T09:39:21.247Z,33.8
2022-08-04T09:40:28.175Z,34.2
2022-08-04T09:41:45.474Z,34.0
2022-08-04T09:42:26.151Z,33.8
2022-08-04T09:43:26.589Z,35.2
2022-08-04T09:44:50.315Z,35.8
2022-08-04T09:45:43.252Z,36.3
2022-08-04T09:46:29.426Z,36.1
2022-08-04T09:47:39.437Z,34.6
2022-08-04T09:48:31.627Z,35.2
2022-08-04T09:49:32.234Z,36.4
2022-08-04T09:50:32.841Z,35.1
2022-08-04T09:51:59.089Z,36.0
2022-08-04T09:52:35.060Z,36.6
2022-08-04T09:53:35.690Z,37.0
2022-08-04T09:54:36.310Z,35.7
2022-08-04T09:55:36.913Z,35.0
2022-08-04T09:56:38.511Z,36.4
2022-08-04T09:57:39.116Z,36.3
2022-08-04T09:58:39.721Z,35.8
2022-08-04T09:59:40.323Z,36.1
2022-08-04T10:00:42.086Z,36.6
2022-08-04T10:01:42.522Z,36.7
2022-08-04T10:02:43.143Z,36.7
2022-08-04T10:03:43.750Z,36.4
2022-08-04T10:04:44.356Z,36.6
2022-08-04T10:05:44.966Z,35.6
2022-08-04T10:06:45.566Z,36.4
2022-08-04T10:07:59.617Z,35.9
2022-08-04T10:08:47.769Z,36.1
2022-08-04T10:09:48.373Z,34.6
2022-08-04T10:10:48.997Z,35.5
2022-08-04T10:11:54.734Z,35.1
2022-08-04T10:12:51.200Z,35.1
2022-08-04T10:13:51.808Z,34.9
2022-08-04T10:14:52.418Z,36.1
2022-08-04T10:15:53.054Z,35.6
2022-08-04T10:16:53.677Z,35.8
2022-08-04T10:17:54.282Z,35.9
2022-08-04T10:18:54.884Z,37.0
2022-08-04T10:19:55.490Z,37.3
2022-08-04T10:21:00.060Z,36.0
2022-08-04T10:21:59.453Z,36.0
2022-08-04T10:23:11.034Z,36.1
2022-08-04T10:24:00.891Z,36.8
2022-08-04T10:25:01.491Z,36.1
2022-08-04T10:26:07.667Z,36.3
2022-08-04T10:27:03.695Z,36.0
2022-08-04T10:28:04.298Z,35.7
2022-08-04T10:29:04.903Z,35.5
2022-08-04T10:30:05.508Z,36.5
2022-08-04T10:31:06.116Z,35.8
2022-08-04T10:32:06.742Z,35.8
2022-08-04T10:33:07.366Z,34.8
2022-08-04T10:34:07.968Z,35.1
2022-08-04T10:35:08.574Z,35.6
2022-08-04T10:36:09.178Z,36.5
2022-08-04T10:37:09.798Z,35.6
2022-08-04T10:38:10.406Z,33.9
2022-08-04T10:39:13.751Z,34.2
2022-08-04T10:40:11.677Z,33.7
2022-08-04T10:41:12.253Z,34.3
2022-08-04T10:42:12.858Z,33.2
2022-08-04T10:43:20.771Z,34.5
2022-08-04T10:44:15.062Z,32.8
2022-08-04T10:45:15.691Z,33.5
2022-08-04T10:46:16.294Z,33.2
2022-08-04T10:47:16.899Z,32.8
2022-08-04T10:48:17.526Z,32.5
2022-08-04T10:49:19.125Z,33.1
2022-08-04T10:50:20.720Z,33.9
2022-08-04T10:51:21.329Z,33.3
2022-08-04T10:52:21.951Z,33.8
2022-08-04T10:53:22.558Z,34.1
2022-08-04T10:54:23.183Z,34.1
2022-08-04T10:55:23.792Z,33.8
2022-08-04T10:56:25.385Z,33.3
2022-08-04T10:57:25.992Z,32.9
2022-08-04T10:58:47.510Z,33.8
2022-08-04T10:59:28.193Z,32.0
2022-08-04T11:00:28.803Z,31.9
2022-08-04T11:01:59.600Z,31.5
2022-08-04T11:02:30.088Z,32.7
2022-08-04T11:03:30.645Z,31.5
2022-08-04T11:04:31.269Z,33.1
2022-08-04T11:05:31.895Z,33.0
2022-08-04T11:06:32.498Z,32.9
2022-08-04T11:07:33.104Z,32.9
2022-08-04T11:08:33.709Z,32.3
2022-08-04T11:09:34.330Z,34.1
2022-08-04T11:10:34.932Z,32.6
2022-08-04T11:12:00.109Z,31.6
2022-08-04T11:12:37.137Z,32.0
2022-08-04T11:13:37.737Z,32.8
2022-08-04T11:14:38.902Z,31.9
2022-08-04T11:15:38.982Z,32.7
2022-08-04T11:16:39.586Z,34.0
2022-08-04T11:17:40.193Z,32.3
2022-08-04T11:18:40.799Z,32.6
2022-08-04T11:19:42.839Z,31.8
2022-08-04T11:20:42.031Z,31.0
2022-08-04T11:21:42.630Z,30.5
2022-08-04T11:22:43.233Z,32.0
2022-08-04T11:23:43.860Z,31.9
2022-08-04T11:24:44.461Z,32.8
2022-08-04T11:25:48.465Z,30.7
2022-08-04T11:26:45.688Z,32.1
2022-08-04T11:27:46.296Z,31.7
2022-08-04T11:28:52.501Z,32.0
2022-08-04T11:29:48.500Z,32.2
2022-08-04T11:30:49.102Z,33.3
2022-08-04T11:31:51.824Z,32.7
2022-08-04T11:32:51.304Z,33.1
2022-08-04T11:33:51.912Z,33.0
2022-08-04T11:34:52.862Z,32.3
2022-08-04T11:35:53.755Z,32.9
2022-08-04T11:36:54.358Z,33.9
2022-08-04T11:37:54.963Z,34.1
2022-08-04T11:38:55.624Z,32.7
2022-08-04T11:39:56.183Z,34.4
2022-08-04T11:41:03.169Z,33.4
2022-08-04T11:41:58.391Z,33.3
2022-08-04T11:42:58.993Z,32.8
2022-08-04T11:44:01.720Z,33.4
2022-08-04T11:45:01.398Z,35.1
2022-08-04T11:46:02.009Z,34.3
2022-08-04T11:47:02.613Z,35.0
2022-08-04T11:48:03.218Z,33.9
2022-08-04T11:49:03.822Z,33.7
2022-08-04T11:50:04.428Z,34.1
2022-08-04T11:51:06.783Z,34.1
2022-08-04T11:52:06.629Z,32.6
2022-08-04T11:53:07.234Z,33.1
2022-08-04T11:54:07.838Z,32.8
2022-08-04T11:55:08.443Z,33.8
2022-08-04T11:56:11.071Z,32.7
2022-08-04T11:57:09.682Z,33.1
2022-08-04T11:58:10.319Z,32.3
2022-08-04T11:59:10.943Z,33.3
2022-08-04T12:00:11.621Z,33.0
2022-08-04T12:01:12.181Z,33.2
2022-08-04T12:02:13.624Z,33.4
2022-08-04T12:03:14.383Z,34.2
2022-08-04T12:04:15.009Z,33.3
2022-08-04T12:05:32.402Z,34.0
2022-08-04T12:06:16.237Z,33.8
2022-08-04T12:07:33.697Z,33.0
2022-08-04T12:08:18.438Z,31.9
2022-08-04T12:09:19.043Z,32.0
2022-08-04T12:10:41.422Z,31.8
2022-08-04T12:11:21.250Z,32.0
2022-08-04T12:12:21.873Z,32.5
2022-08-04T12:13:22.484Z,31.5
2022-08-04T12:14:23.087Z,31.6
2022-08-04T12:15:23.692Z,32.1
2022-08-04T12:16:24.333Z,31.9
2022-08-04T12:17:24.921Z,33.2
2022-08-04T12:18:26.521Z,31.7
2022-08-04T12:19:30.907Z,31.6
2022-08-04T12:20:34.359Z,32.9
2022-08-04T12:21:30.512Z,31.8
2022-08-04T12:22:31.509Z,32.2
2022-08-04T12:23:32.685Z,32.7
2022-08-04T12:24:33.292Z,32.1
2022-08-04T12:25:33.895Z,34.2
2022-08-04T12:26:34.504Z,34.4
2022-08-04T12:27:35.123Z,33.8
2022-08-04T12:28:59.577Z,33.1
2022-08-04T12:29:36.349Z,34.1
2022-08-04T12:30:57.502Z,33.5
2022-08-04T12:31:38.552Z,33.4
2022-08-04T12:32:39.156Z,34.2
2022-08-04T12:34:05.701Z,33.8
2022-08-04T12:34:41.376Z,34.2
2022-08-04T12:36:10.495Z,33.5
2022-08-04T12:36:43.581Z,33.2
2022-08-04T12:37:44.184Z,34.3
2022-08-04T12:38:44.789Z,33.9
2022-08-04T12:40:28.304Z,32.5
2022-08-04T12:40:46.994Z,32.7
2022-08-04T12:41:47.618Z,33.2
2022-08-04T12:42:55.886Z,32.9
2022-08-04T12:43:48.847Z,33.5
2022-08-04T12:44:49.450Z,32.9
2022-08-04T12:45:50.053Z,33.7
2022-08-04T12:46:50.676Z,32.9
2022-08-04T12:47:51.288Z,32.9
2022-08-04T12:48:51.885Z,33.0
2022-08-04T12:50:01.058Z,33.8
2022-08-04T12:50:54.095Z,33.9
2022-08-04T12:52:08.601Z,34.2
2022-08-04T12:53:02.064Z,34.0
2022-08-04T12:53:57.892Z,34.2
2022-08-04T12:54:58.498Z,34.3
2022-08-04T12:56:01.928Z,34.0
2022-08-04T12:57:00.702Z,34.3
2022-08-04T12:58:01.325Z,35.3
2022-08-04T12:59:01.910Z,34.2
2022-08-04T13:00:02.533Z,33.5
2022-08-04T13:01:03.157Z,34.4
2022-08-04T13:02:08.919Z,33.3
2022-08-04T13:03:06.321Z,32.8
2022-08-04T13:04:07.916Z,31.6
2022-08-04T13:05:08.521Z,31.3
2022-08-04T13:06:09.124Z,31.5
2022-08-04T13:07:09.750Z,31.5
2022-08-04T13:08:10.354Z,31.3
2022-08-04T13:09:17.558Z,30.6
2022-08-04T13:10:12.555Z,31.0
2022-08-04T13:11:14.154Z,30.7
2022-08-04T13:12:14.757Z,30.9
2022-08-04T13:13:15.371Z,31.3
2022-08-04T13:14:26.515Z,31.0
2022-08-04T13:15:18.509Z,31.9
2022-08-04T13:16:18.187Z,31.7
2022-08-04T13:17:20.012Z,31.3
2022-08-04T13:18:23.194Z,32.2
2022-08-04T13:19:22.984Z,31.8
2022-08-04T13:20:23.588Z,32.2
2022-08-04T13:21:50.123Z,31.8
2022-08-04T13:22:26.593Z,32.2
2022-08-04T13:23:27.217Z,32.1
2022-08-04T13:24:32.418Z,31.9
2022-08-04T13:26:44.491Z,31.8
2022-08-04T13:26:45.048Z,32.0
2022-08-04T13:27:43.142Z,32.0
2022-08-04T13:28:34.210Z,32.8
2022-08-04T13:30:00.228Z,31.8